Time;durP1;ratioP1;P1;durP2;ratioP2;P2;SDS_P1;SDS_P2;PMS_P1;PMS_P2;Temp;Humidity;BMP_temperature;BMP_pressure;BME280_temperature;BME280_humidity;BME280_pressure;Samples;Min_cycle;Max_cycle;Signal;HPM_P1;HPM_P2
2022/04/23 00:00:33;;;;;;;;;33.00;28.50;;;;;14.56;52.80;99670.25;5068450;28;45579;-69
2022/04/23 00:02:59;;;;;;;;;31.75;28.25;;;;;14.58;52.65;99674.50;5075288;27;47018;-69
2022/04/23 00:05:25;;;;;;;;;24.25;22.50;;;;;14.60;52.61;99669.69;5079325;28;45345;-69
2022/04/23 00:07:50;;;;;;;;;27.50;26.75;;;;;14.59;52.88;99667.97;5077594;27;46262;-69
2022/04/23 00:10:15;;;;;;;;;26.75;25.25;;;;;14.57;53.40;99661.03;5070588;28;45286;-69
2022/04/23 00:12:42;;;;;;;;;24.50;22.25;;;;;14.59;51.48;99667.13;5061622;28;47184;-69
2022/04/23 00:15:08;;;;;;;;;28.25;25.50;;;;;14.54;52.23;99659.53;5070226;28;45538;-69
2022/04/23 00:17:34;;;;;;;;;31.25;30.25;;;;;14.52;52.47;99658.06;5063611;28;45445;-69
2022/04/23 00:20:00;;;;;;;;;31.00;29.50;;;;;14.49;52.50;99666.63;5072074;28;45385;-69
2022/04/23 00:22:25;;;;;;;;;29.00;27.75;;;;;14.45;52.23;99654.44;5064025;28;45561;-69
2022/04/23 00:24:51;;;;;;;;;30.25;24.75;;;;;14.36;52.44;99653.69;5068224;28;45389;-69
2022/04/23 00:27:16;;;;;;;;;29.00;26.00;;;;;14.31;52.16;99651.56;5074372;28;45385;-69
2022/04/23 00:29:42;;;;;;;;;38.25;33.25;;;;;14.31;53.16;99651.56;5075135;27;45391;-69
2022/04/23 00:32:08;;;;;;;;;26.00;25.25;;;;;14.25;52.32;99646.03;5069907;27;45631;-69
2022/04/23 00:34:33;;;;;;;;;33.50;28.75;;;;;14.26;52.99;99647.72;5074573;28;45271;-69
2022/04/23 00:36:59;;;;;;;;;30.00;27.50;;;;;14.15;54.01;99645.56;5069475;28;45196;-69
2022/04/23 00:39:24;;;;;;;;;31.50;28.00;;;;;14.14;53.85;99646.59;5074467;28;45448;-69
2022/04/23 00:41:52;;;;;;;;;35.00;28.50;;;;;14.12;53.47;99641.31;5069563;27;45330;-69
2022/04/23 00:44:18;;;;;;;;;28.50;25.75;;;;;14.11;53.74;99633.31;5069859;28;45482;-69
2022/04/23 00:46:44;;;;;;;;;28.75;27.50;;;;;14.11;53.78;99636.06;5069593;27;45639;-69
2022/04/23 00:49:10;;;;;;;;;28.50;27.75;;;;;14.08;53.48;99636.47;5068558;28;45492;-69
2022/04/23 00:51:38;;;;;;;;;27.50;25.25;;;;;14.02;53.65;99633.50;5072879;27;45662;-68
2022/04/23 00:54:07;;;;;;;;;32.75;29.75;;;;;14.03;54.14;99632.44;5075639;27;45260;-69
2022/04/23 00:56:40;;;;;;;;;27.50;23.25;;;;;14.03;53.57;99623.38;5062204;28;45416;-69
2022/04/23 00:59:11;;;;;;;;;31.50;28.50;;;;;14.01;53.86;99625.50;5063695;28;46040;-69
2022/04/23 01:01:40;;;;;;;;;32.50;26.75;;;;;13.96;54.25;99620.59;5062159;28;46084;-69
2022/04/23 01:04:06;;;;;;;;;28.50;27.50;;;;;13.93;54.46;99609.25;5072976;28;45388;-69
2022/04/23 01:06:34;;;;;;;;;33.75;29.75;;;;;13.89;54.88;99614.25;5066059;27;45323;-69
2022/04/23 01:09:06;;;;;;;;;36.25;30.25;;;;;13.89;54.14;99610.66;5067758;28;46212;-69
2022/04/23 01:11:32;;;;;;;;;26.50;26.50;;;;;13.85;54.87;99609.38;5063617;28;45327;-69
2022/04/23 01:13:58;;;;;;;;;28.50;28.00;;;;;13.86;54.31;99614.66;5075354;28;45330;-69
2022/04/23 01:16:24;;;;;;;;;33.00;30.50;;;;;13.78;54.72;99603.88;5066500;27;45445;-69
2022/04/23 01:18:49;;;;;;;;;34.00;28.75;;;;;13.81;54.96;99610.81;5072649;28;45381;-69
2022/04/23 01:21:15;;;;;;;;;32.75;28.00;;;;;13.76;54.39;99607.81;5078635;28;45806;-69
2022/04/23 01:23:42;;;;;;;;;33.00;29.00;;;;;13.73;54.58;99603.63;5070510;28;45357;-69
2022/04/23 01:26:08;;;;;;;;;39.25;32.75;;;;;13.61;55.96;99606.03;5076342;28;45246;-67
2022/04/23 01:28:37;;;;;;;;;26.50;25.75;;;;;13.58;55.22;99600.13;5072383;27;45488;-67
2022/04/23 01:31:05;;;;;;;;;36.75;32.75;;;;;13.52;56.14;99599.00;5076073;28;46296;-67
2022/04/23 01:33:33;;;;;;;;;35.25;30.25;;;;;13.50;55.66;99602.97;5068887;28;45690;-67
2022/04/23 01:35:58;;;;;;;;;32.50;28.00;;;;;13.52;54.95;99601.72;5074926;28;45281;-67
2022/04/23 01:38:24;;;;;;;;;31.00;27.00;;;;;13.51;55.52;99593.75;5068932;28;45468;-67
2022/04/23 01:40:49;;;;;;;;;29.25;27.50;;;;;13.49;55.16;99595.84;5080348;28;47056;-68
2022/04/23 01:43:15;;;;;;;;;29.25;27.00;;;;;13.50;55.28;99592.06;5068802;27;45479;-68
2022/04/23 01:45:40;;;;;;;;;32.50;27.25;;;;;13.48;55.93;99599.59;5074672;27;45263;-68
2022/04/23 01:48:06;;;;;;;;;32.25;27.00;;;;;13.45;56.09;99600.81;5068067;28;45303;-67
2022/04/23 01:50:32;;;;;;;;;29.75;27.00;;;;;13.45;55.83;99594.50;5073613;27;45255;-68
2022/04/23 01:52:58;;;;;;;;;32.50;28.00;;;;;13.36;56.02;99582.06;5066823;28;45467;-67
2022/04/23 01:55:23;;;;;;;;;33.75;28.50;;;;;13.42;55.92;99586.75;5071420;28;45389;-68
2022/04/23 01:57:48;;;;;;;;;28.25;25.75;;;;;13.37;55.41;99575.56;5067504;28;45579;-68
2022/04/23 02:00:14;;;;;;;;;32.75;31.50;;;;;13.38;55.15;99574.50;5076205;28;45283;-69
2022/04/23 02:02:44;;;;;;;;;39.00;30.50;;;;;13.38;55.22;99572.63;5070830;28;45710;-68
2022/04/23 02:05:10;;;;;;;;;32.50;28.50;;;;;13.44;55.36;99581.94;5072616;28;45453;-68
2022/04/23 02:07:39;;;;;;;;;38.75;32.75;;;;;13.44;55.82;99587.41;5066146;28;45547;-68
2022/04/23 02:10:06;;;;;;;;;29.50;28.25;;;;;13.39;55.72;99578.94;5072381;28;45404;-68
2022/04/23 02:12:31;;;;;;;;;30.75;27.50;;;;;13.35;56.04;99578.50;5065970;28;45397;-68
2022/04/23 02:14:57;;;;;;;;;33.00;31.25;;;;;13.36;55.79;99577.47;5070992;28;45491;-68
2022/04/23 02:17:22;;;;;;;;;24.75;23.50;;;;;13.35;54.90;99573.03;5073496;28;45326;-68
2022/04/23 02:19:48;;;;;;;;;33.50;29.75;;;;;13.29;55.83;99567.53;5072570;28;46931;-68
2022/04/23 02:22:13;;;;;;;;;35.50;30.50;;;;;13.18;56.51;99566.97;5069777;27;45499;-68
2022/04/23 02:24:38;;;;;;;;;33.25;31.25;;;;;13.17;56.87;99569.91;5071828;28;45524;-68
2022/04/23 02:27:04;;;;;;;;;35.50;33.75;;;;;13.12;56.58;99562.28;5071465;27;45231;-68
2022/04/23 02:29:29;;;;;;;;;30.25;27.00;;;;;13.15;55.92;99567.34;5074134;27;45459;-68
2022/04/23 02:31:54;;;;;;;;;31.50;28.00;;;;;13.13;56.12;99572.19;5072041;27;45203;-69
2022/04/23 02:34:21;;;;;;;;;35.00;31.50;;;;;13.15;56.33;99572.81;5067239;28;45484;-68
2022/04/23 02:36:47;;;;;;;;;34.50;30.50;;;;;13.14;57.20;99571.16;5075925;28;45171;-68
2022/04/23 02:39:13;;;;;;;;;34.50;29.75;;;;;13.15;56.77;99563.81;5068927;28;47110;-68
2022/04/23 02:41:38;;;;;;;;;35.25;30.25;;;;;13.15;56.62;99561.91;5075482;28;45728;-68
2022/04/23 02:44:04;;;;;;;;;33.50;31.50;;;;;13.08;57.01;99552.78;5068410;28;45692;-68
2022/04/23 02:46:30;;;;;;;;;33.25;30.75;;;;;13.18;56.32;99555.22;5075926;27;45460;-68
2022/04/23 02:48:58;;;;;;;;;19.00;19.00;;;;;13.20;55.79;99550.44;5067708;27;46519;-68
2022/04/23 02:51:23;;;;;;;;;33.50;30.50;;;;;13.17;56.83;99548.94;5069096;28;45362;-68
2022/04/23 02:53:48;;;;;;;;;32.00;31.00;;;;;13.15;56.98;99553.72;5068106;28;45353;-68
2022/04/23 02:56:17;;;;;;;;;34.50;28.75;;;;;13.08;57.56;99546.47;5066805;28;45337;-68
2022/04/23 02:58:43;;;;;;;;;31.75;30.50;;;;;13.06;57.11;99545.84;5065063;28;48360;-69
2022/04/23 03:01:10;;;;;;;;;35.75;32.75;;;;;13.11;55.43;99549.69;5061403;28;45413;-68
2022/04/23 03:03:38;;;;;;;;;27.50;27.50;;;;;13.09;56.75;99549.00;5075369;28;45527;-68
2022/04/23 03:06:07;;;;;;;;;30.00;29.50;;;;;13.02;56.98;99534.47;5082683;27;45527;-68
2022/04/23 03:08:35;;;;;;;;;32.75;24.25;;;;;12.99;56.52;99528.56;5075817;28;46066;-68
2022/04/23 03:11:00;;;;;;;;;27.25;25.00;;;;;12.98;56.97;99522.28;5067309;27;45232;-68
2022/04/23 03:13:25;;;;;;;;;32.50;31.75;;;;;12.93;56.81;99538.34;5067811;28;45518;-68
2022/04/23 03:15:51;;;;;;;;;29.00;28.00;;;;;12.95;56.82;99539.00;5068245;28;45557;-68
2022/04/23 03:18:18;;;;;;;;;33.00;29.25;;;;;12.94;56.71;99529.13;5068960;28;45669;-68
2022/04/23 03:20:45;;;;;;;;;31.25;29.00;;;;;12.90;57.04;99533.28;5075800;28;45517;-71
2022/04/23 03:23:13;;;;;;;;;35.25;31.75;;;;;12.89;57.49;99539.78;5078068;27;45340;-69
2022/04/23 03:25:41;;;;;;;;;29.50;26.25;;;;;12.81;56.95;99529.00;5074965;28;45702;-68
2022/04/23 03:28:06;;;;;;;;;30.50;29.50;;;;;12.82;57.10;99527.97;5070510;27;46502;-68
2022/04/23 03:30:32;;;;;;;;;36.00;31.00;;;;;12.75;57.67;99511.53;5072704;28;45438;-68
2022/04/23 03:32:58;;;;;;;;;22.00;22.00;;;;;12.75;57.51;99521.59;5065122;28;48096;-68
2022/04/23 03:35:23;;;;;;;;;31.00;29.25;;;;;12.69;58.06;99522.38;5072802;27;45341;-68
2022/04/23 03:37:49;;;;;;;;;32.25;29.00;;;;;12.67;57.83;99518.97;5064098;28;45361;-69
2022/04/23 03:40:14;;;;;;;;;30.75;28.25;;;;;12.64;58.08;99514.75;5074353;27;45284;-68
2022/04/23 03:42:45;;;;;;;;;29.25;27.50;;;;;12.68;57.63;99510.63;5064866;28;45259;-68
2022/04/23 03:45:10;;;;;;;;;28.50;27.00;;;;;12.64;58.10;99508.47;5072336;28;45387;-68
2022/04/23 03:47:36;;;;;;;;;28.25;23.75;;;;;12.65;57.87;99505.53;5066268;28;47985;-68
2022/04/23 03:50:04;;;;;;;;;29.25;26.50;;;;;12.63;57.78;99504.06;5069164;28;45341;-69
2022/04/23 03:52:29;;;;;;;;;29.25;29.00;;;;;12.61;56.75;99496.06;5063829;28;45226;-68
2022/04/23 03:54:55;;;;;;;;;32.25;27.00;;;;;12.59;57.85;99494.56;5068108;27;45330;-68
2022/04/23 03:57:20;;;;;;;;;28.50;26.25;;;;;12.54;58.02;99483.41;5062076;28;46388;-68
2022/04/23 03:59:45;;;;;;;;;31.00;28.75;;;;;12.48;57.64;99485.88;5075755;27;45173;-68
2022/04/23 04:02:11;;;;;;;;;32.00;30.25;;;;;12.48;58.20;99490.47;5062433;28;45262;-68
2022/04/23 04:04:36;;;;;;;;;40.00;28.00;;;;;12.40;58.21;99499.59;5076665;28;45597;-70
2022/04/23 04:07:02;;;;;;;;;29.50;24.50;;;;;12.32;58.74;99486.09;5075602;28;45670;-68
2022/04/23 04:09:28;;;;;;;;;29.00;25.50;;;;;12.32;58.95;99494.25;5070301;28;45383;-68
2022/04/23 04:12:02;;;;;;;;;28.75;26.75;;;;;12.26;59.67;99500.47;5062083;28;45349;-70
2022/04/23 04:14:35;;;;;;;;;28.50;27.25;;;;;12.24;59.25;99496.22;5073254;28;45433;-68
2022/04/23 04:17:05;;;;;;;;;30.75;28.75;;;;;12.25;59.19;99487.88;5063167;28;47053;-68
2022/04/23 04:19:32;;;;;;;;;29.00;25.75;;;;;12.29;59.24;99486.44;5071497;28;45353;-68
2022/04/23 04:21:58;;;;;;;;;29.50;25.00;;;;;12.28;59.53;99484.75;5072446;27;45558;-68
2022/04/23 04:24:26;;;;;;;;;32.75;29.75;;;;;12.26;59.68;99484.13;5068981;28;45650;-68
2022/04/23 04:26:52;;;;;;;;;33.00;29.25;;;;;12.23;59.54;99473.59;5070499;28;46321;-68
2022/04/23 04:29:18;;;;;;;;;25.50;25.00;;;;;12.29;58.84;99480.16;5070716;27;45496;-68
2022/04/23 04:31:49;;;;;;;;;29.25;25.75;;;;;12.34;58.54;99484.03;5072022;27;45388;-68
2022/04/23 04:34:28;;;;;;;;;29.50;27.00;;;;;12.31;58.78;99498.00;5067869;28;45403;-68
2022/04/23 04:37:04;;;;;;;;;34.75;32.00;;;;;12.29;59.10;99497.34;5068830;27;45544;-68
2022/04/23 04:39:30;;;;;;;;;20.50;20.25;;;;;12.21;59.35;99486.56;5068750;28;45513;-69
2022/04/23 04:41:55;;;;;;;;;32.00;25.75;;;;;12.20;59.60;99493.03;5067488;27;45436;-68
2022/04/23 04:44:21;;;;;;;;;28.25;26.00;;;;;12.17;59.70;99479.81;5067900;28;45684;-68
2022/04/23 04:46:46;;;;;;;;;30.25;27.50;;;;;12.20;58.61;99484.03;5078998;27;48035;-68
2022/04/23 04:49:11;;;;;;;;;32.50;27.00;;;;;12.22;59.38;99485.53;5068871;28;45455;-68
2022/04/23 04:51:37;;;;;;;;;28.25;27.75;;;;;12.21;59.22;99483.81;5080653;27;45405;-68
2022/04/23 04:54:04;;;;;;;;;23.50;21.00;;;;;12.22;59.02;99488.25;5067503;28;45291;-68
2022/04/23 04:56:29;;;;;;;;;33.50;25.75;;;;;12.19;59.68;99487.78;5069419;28;45478;-68
2022/04/23 04:58:54;;;;;;;;;27.00;25.50;;;;;12.20;59.73;99487.56;5068714;28;45715;-68
2022/04/23 05:01:19;;;;;;;;;30.75;28.75;;;;;12.16;59.80;99478.13;5064671;28;45434;-68
2022/04/23 05:03:45;;;;;;;;;23.75;21.00;;;;;12.19;59.25;99482.34;5068072;28;45575;-68
2022/04/23 05:06:10;;;;;;;;;29.25;25.25;;;;;12.25;59.10;99481.59;5067773;28;46206;-69
2022/04/23 05:08:36;;;;;;;;;32.50;25.25;;;;;12.24;59.14;99486.19;5070596;28;45492;-68
2022/04/23 05:11:03;;;;;;;;;24.00;24.00;;;;;12.26;58.18;99477.84;5069508;27;45367;-68
2022/04/23 05:13:29;;;;;;;;;35.75;32.75;;;;;12.26;59.65;99488.72;5070377;28;45249;-68
2022/04/23 05:15:55;;;;;;;;;28.75;28.50;;;;;12.24;59.70;99483.47;5079098;28;47307;-69
2022/04/23 05:18:20;;;;;;;;;36.00;31.75;;;;;12.26;59.51;99489.56;5071383;28;45793;-69
2022/04/23 05:20:46;;;;;;;;;27.50;26.50;;;;;12.26;59.72;99486.84;5077748;28;45708;-69
2022/04/23 05:23:11;;;;;;;;;35.25;28.25;;;;;12.30;59.50;99490.88;5070056;27;45734;-69
2022/04/23 05:25:36;;;;;;;;;26.25;26.25;;;;;12.36;59.06;99490.09;5072781;28;47936;-68
2022/04/23 05:28:02;;;;;;;;;34.75;28.00;;;;;12.42;58.99;99493.94;5083666;27;45709;-69
2022/04/23 05:30:27;;;;;;;;;27.00;25.50;;;;;12.44;59.10;99487.28;5075400;27;45600;-69
2022/04/23 05:32:52;;;;;;;;;29.00;27.75;;;;;12.52;58.76;99480.03;5067521;27;45605;-68
2022/04/23 05:35:18;;;;;;;;;32.75;29.75;;;;;12.55;58.25;99471.47;5068421;28;47204;-68
2022/04/23 05:37:43;;;;;;;;;33.75;29.25;;;;;12.62;58.50;99475.13;5064870;28;45614;-69
2022/04/23 05:40:09;;;;;;;;;30.25;28.25;;;;;12.72;57.68;99481.09;5076091;28;45640;-68
2022/04/23 05:42:34;;;;;;;;;30.25;27.50;;;;;12.79;57.89;99482.84;5067170;27;45409;-69
2022/04/23 05:45:00;;;;;;;;;29.25;27.50;;;;;12.85;57.61;99473.91;5073300;27;46716;-69
2022/04/23 05:47:25;;;;;;;;;31.25;28.25;;;;;12.92;57.66;99479.44;5065152;27;45417;-69
2022/04/23 05:49:50;;;;;;;;;30.25;28.25;;;;;12.94;57.48;99471.03;5072221;27;45473;-69
2022/04/23 05:52:16;;;;;;;;;33.00;27.00;;;;;12.96;57.24;99472.53;5065206;27;45367;-69
2022/04/23 05:54:41;;;;;;;;;34.00;29.25;;;;;12.96;56.90;99469.81;5066179;28;46358;-68
2022/04/23 05:57:06;;;;;;;;;31.50;28.50;;;;;12.98;57.63;99467.75;5062840;28;45389;-69
2022/04/23 05:59:32;;;;;;;;;35.50;29.75;;;;;13.08;57.17;99468.25;5078924;28;45984;-69
2022/04/23 06:01:57;;;;;;;;;30.25;29.50;;;;;13.19;56.98;99464.19;5062978;28;45639;-69
2022/04/23 06:04:23;;;;;;;;;29.25;27.25;;;;;13.29;56.82;99463.88;5076362;28;45455;-70
2022/04/23 06:06:49;;;;;;;;;26.00;26.00;;;;;13.31;56.58;99451.69;5068869;28;45512;-70
2022/04/23 06:09:14;;;;;;;;;33.00;29.00;;;;;13.39;56.07;99459.75;5072589;28;45331;-69
2022/04/23 06:11:40;;;;;;;;;26.00;24.25;;;;;13.45;55.55;99458.94;5062349;28;45325;-69
2022/04/23 06:14:06;;;;;;;;;30.75;29.00;;;;;13.44;56.03;99456.44;5073223;28;45473;-68
2022/04/23 06:16:31;;;;;;;;;33.00;25.00;;;;;13.51;56.11;99462.78;5068572;27;45435;-69
2022/04/23 06:18:56;;;;;;;;;24.75;24.50;;;;;13.54;56.01;99460.50;5074485;27;45335;-68
2022/04/23 06:21:22;;;;;;;;;34.50;29.25;;;;;13.56;55.69;99466.59;5075663;28;45571;-69
2022/04/23 06:23:47;;;;;;;;;30.75;28.50;;;;;13.57;56.19;99462.84;5070759;28;45594;-69
2022/04/23 06:26:12;;;;;;;;;37.75;30.75;;;;;13.66;56.08;99466.25;5079502;28;45365;-69
2022/04/23 06:28:38;;;;;;;;;37.00;27.00;;;;;13.79;55.26;99474.53;5078942;27;45319;-69
2022/04/23 06:31:03;;;;;;;;;31.75;26.00;;;;;13.91;55.00;99497.50;5075594;28;45330;-69
2022/04/23 06:33:29;;;;;;;;;27.50;27.25;;;;;13.92;54.97;99501.06;5066771;28;47302;-69
2022/04/23 06:35:54;;;;;;;;;29.00;27.00;;;;;13.78;55.08;99491.94;5078594;28;45712;-69
2022/04/23 06:38:20;;;;;;;;;28.75;28.75;;;;;13.88;54.66;99497.88;5066442;28;45398;-69
2022/04/23 06:40:45;;;;;;;;;28.50;26.25;;;;;14.09;54.39;99488.78;5072071;28;45321;-69
2022/04/23 06:43:10;;;;;;;;;30.75;28.75;;;;;14.18;54.45;99475.78;5064374;28;46307;-69
2022/04/23 06:45:36;;;;;;;;;26.50;24.75;;;;;14.31;54.01;99497.72;5069523;28;45485;-70
2022/04/23 06:48:04;;;;;;;;;38.00;33.00;;;;;14.41;53.49;99499.06;5063390;28;45774;-69
2022/04/23 06:50:34;;;;;;;;;38.50;32.75;;;;;14.35;53.55;99479.88;5068046;28;45392;-69
2022/04/23 06:53:01;;;;;;;;;26.75;26.50;;;;;14.32;53.77;99485.72;5067564;28;45417;-69
2022/04/23 06:55:27;;;;;;;;;39.00;33.75;;;;;14.44;53.71;99492.34;5068927;28;45470;-69
2022/04/23 06:57:53;;;;;;;;;30.75;25.75;;;;;14.68;53.34;99489.06;5065205;28;45322;-69
2022/04/23 07:00:21;;;;;;;;;27.75;26.25;;;;;14.80;52.38;99465.56;5076893;28;45440;-69
2022/04/23 07:02:46;;;;;;;;;34.00;27.00;;;;;15.00;52.42;99478.41;5079965;27;45652;-69
2022/04/23 07:05:12;;;;;;;;;31.75;30.00;;;;;15.08;52.08;99478.22;5072950;28;45673;-68
2022/04/23 07:07:37;;;;;;;;;29.25;25.50;;;;;15.20;51.85;99488.31;5065502;28;45477;-68
2022/04/23 07:10:03;;;;;;;;;29.50;27.25;;;;;15.22;51.57;99473.59;5072311;27;45334;-68
2022/04/23 07:12:28;;;;;;;;;31.25;28.00;;;;;15.22;51.78;99484.53;5064618;28;46376;-68
2022/04/23 07:14:53;;;;;;;;;31.50;24.75;;;;;15.13;51.36;99483.91;5073670;27;45340;-69
2022/04/23 07:17:26;;;;;;;;;29.50;29.50;;;;;15.13;51.34;99486.63;5064546;28;45252;-68
2022/04/23 07:19:54;;;;;;;;;36.50;31.00;;;;;15.16;51.28;99475.28;5081976;28;45330;-68
2022/04/23 07:22:20;;;;;;;;;32.50;30.50;;;;;15.10;51.80;99476.13;5069460;28;46486;-69
2022/04/23 07:24:48;;;;;;;;;30.75;27.75;;;;;14.91;52.33;99485.97;5067424;28;45351;-68
2022/04/23 07:27:13;;;;;;;;;32.25;30.00;;;;;14.91;52.06;99476.91;5063920;28;45428;-68
2022/04/23 07:29:38;;;;;;;;;28.75;27.00;;;;;14.80;52.50;99478.38;5081368;27;45489;-68
2022/04/23 07:32:05;;;;;;;;;30.50;29.00;;;;;15.00;52.62;99472.94;5079027;27;47769;-68
2022/04/23 07:37:29;;;;;;;;;29.50;28.25;;;;;14.99;52.68;99468.53;5068605;28;45412;-68
2022/04/23 07:40:12;;;;;;;;;29.25;29.25;;;;;14.92;52.80;99459.47;5074082;27;45310;-68
2022/04/23 07:42:38;;;;;;;;;34.25;30.50;;;;;15.02;52.68;99460.75;5065339;27;46413;-69
2022/04/23 07:45:04;;;;;;;;;29.25;26.75;;;;;15.25;52.05;99454.88;5072005;28;45393;-69
2022/04/23 07:47:30;;;;;;;;;29.25;28.75;;;;;15.33;51.88;99453.84;5062974;27;45590;-69
2022/04/23 07:49:55;;;;;;;;;31.75;29.50;;;;;15.34;52.02;99464.53;5071510;27;45405;-69
2022/04/23 07:52:21;;;;;;;;;31.00;30.25;;;;;15.33;52.00;99468.38;5065679;28;47167;-69
2022/04/23 07:54:46;;;;;;;;;34.00;29.50;;;;;15.39;51.86;99466.69;5066503;28;45363;-69
2022/04/23 07:57:13;;;;;;;;;32.50;30.75;;;;;15.47;51.63;99464.56;5075263;28;45338;-69
2022/04/23 07:59:41;;;;;;;;;36.75;33.75;;;;;15.60;51.20;99461.00;5074198;27;45559;-69
2022/04/23 08:02:08;;;;;;;;;28.50;27.75;;;;;15.75;51.48;99469.00;5062589;28;46336;-69
2022/04/23 08:04:34;;;;;;;;;30.00;28.75;;;;;15.83;51.04;99455.94;5078035;28;45685;-69
2022/04/23 08:07:00;;;;;;;;;30.50;29.25;;;;;15.88;51.14;99463.50;5062691;28;45260;-69
2022/04/23 08:09:25;;;;;;;;;36.75;32.00;;;;;15.98;50.66;99452.09;5073473;28;45542;-69
2022/04/23 08:11:50;;;;;;;;;29.25;26.50;;;;;16.27;50.69;99455.16;5067784;28;47304;-69
2022/04/23 08:14:16;;;;;;;;;34.00;29.00;;;;;16.53;49.96;99445.97;5075878;27;45246;-69
2022/04/23 08:16:42;;;;;;;;;34.75;30.00;;;;;16.69;49.24;99450.16;5062292;28;45433;-69
2022/04/23 08:19:08;;;;;;;;;34.00;29.25;;;;;16.49;49.15;99450.22;5068431;28;45630;-69
2022/04/23 08:21:34;;;;;;;;;32.50;29.50;;;;;16.55;49.27;99438.38;5074378;28;46939;-69
2022/04/23 08:23:59;;;;;;;;;35.50;31.75;;;;;16.85;48.66;99443.31;5066632;28;45554;-69
2022/04/23 08:26:25;;;;;;;;;31.50;28.25;;;;;17.09;48.49;99437.03;5074229;28;45344;-69
2022/04/23 08:31:34;;;;;;;;;31.50;29.00;;;;;17.41;47.93;99435.91;5073019;28;45708;-69
2022/04/23 08:33:59;;;;;;;;;32.50;30.00;;;;;17.51;47.87;99432.66;5069732;28;45329;-69
2022/04/23 08:36:36;;;;;;;;;31.00;29.75;;;;;17.44;47.15;99437.38;5070813;28;45321;-69
2022/04/23 08:39:04;;;;;;;;;34.00;30.00;;;;;17.26;47.84;99440.88;5069015;28;45362;-69
2022/04/23 08:41:31;;;;;;;;;33.75;30.25;;;;;17.47;47.95;99436.91;5069478;28;46604;-69
2022/04/23 08:44:06;;;;;;;;;22.25;22.25;;;;;17.62;47.84;99429.19;5068965;27;45307;-68
2022/04/23 08:46:36;;;;;;;;;29.00;27.75;;;;;17.35;47.75;99435.97;5070521;28;45443;-68
2022/04/23 08:49:08;;;;;;;;;35.25;30.50;;;;;17.18;48.20;99432.09;5071197;28;45368;-68
2022/04/23 08:51:35;;;;;;;;;32.50;30.00;;;;;17.03;48.96;99430.50;5066748;28;45718;-68
2022/04/23 08:54:08;;;;;;;;;38.75;34.50;;;;;17.12;49.08;99433.81;5066990;28;45289;-69
2022/04/23 08:56:35;;;;;;;;;33.75;31.50;;;;;17.41;47.98;99433.16;5066372;28;45446;-69
2022/04/23 08:59:01;;;;;;;;;33.25;32.25;;;;;17.43;47.83;99436.53;5063297;28;45516;-68
2022/04/23 09:01:31;;;;;;;;;38.00;31.00;;;;;17.51;48.47;99444.50;5064410;28;46470;-68
2022/04/23 09:03:56;;;;;;;;;39.25;33.50;;;;;17.22;48.56;99419.63;5065223;28;45255;-68
2022/04/23 09:06:21;;;;;;;;;33.75;31.50;;;;;17.49;48.72;99443.88;5079974;28;45203;-69
2022/04/23 09:09:06;;;;;;;;;36.75;33.50;;;;;17.59;48.35;99443.38;5075938;27;45318;-68
2022/04/23 09:11:35;;;;;;;;;33.50;30.00;;;;;17.52;48.60;99431.59;5063169;27;46363;-69
2022/04/23 09:14:05;;;;;;;;;30.50;29.00;;;;;17.61;48.77;99440.38;5066723;28;45336;-68
2022/04/23 09:25:04;;;;;;;;;32.50;30.75;;;;;18.61;46.61;99439.09;5075405;28;45363;-69
2022/04/23 09:27:31;;;;;;;;;34.00;31.25;;;;;18.75;46.49;99424.09;5077499;27;45460;-69
2022/04/23 09:30:02;;;;;;;;;36.00;33.00;;;;;18.85;46.32;99431.78;5073642;27;45448;-68
2022/04/23 09:32:28;;;;;;;;;22.00;22.00;;;;;18.68;45.84;99442.59;5077757;28;47067;-70
2022/04/23 09:35:09;;;;;;;;;32.00;30.00;;;;;18.75;45.93;99435.09;5077228;28;45254;-68
2022/04/23 09:40:21;;;;;;;;;35.00;30.00;;;;;19.05;44.66;99435.06;5078278;28;45489;-68
2022/04/23 09:43:08;;;;;;;;;31.75;29.50;;;;;18.55;45.50;99434.50;5074880;28;45468;-69
2022/04/23 09:45:41;;;;;;;;;35.75;30.50;;;;;18.81;45.89;99422.31;5081223;28;45306;-69
2022/04/23 09:48:14;;;;;;;;;32.75;29.50;;;;;19.23;45.26;99428.63;5073194;27;45449;-69
2022/04/23 09:50:41;;;;;;;;;31.75;28.50;;;;;19.63;44.72;99412.31;5076082;28;45459;-69
2022/04/23 09:53:14;;;;;;;;;33.25;30.00;;;;;20.05;44.08;99424.88;5071094;28;45463;-69
2022/04/23 09:55:40;;;;;;;;;43.25;33.25;;;;;20.47;42.54;99420.00;5079262;28;45433;-68
2022/04/23 09:58:09;;;;;;;;;35.75;31.50;;;;;20.67;41.83;99427.88;5072976;28;45423;-69
2022/04/23 10:00:40;;;;;;;;;32.50;30.75;;;;;20.83;42.79;99416.00;5081986;28;45308;-69
2022/04/23 10:03:06;;;;;;;;;30.75;28.75;;;;;21.09;41.12;99417.34;5079358;27;46081;-69
2022/04/23 10:05:35;;;;;;;;;32.50;30.00;;;;;;;;5075833;28;45445;-69
2022/04/23 10:08:02;;;;;;;;;33.25;31.25;;;;;21.31;40.18;99423.84;5072948;28;45548;-69
2022/04/23 10:10:33;;;;;;;;;31.50;31.00;;;;;21.28;41.40;99421.56;5073027;28;45491;-69
2022/04/23 10:13:00;;;;;;;;;32.50;30.00;;;;;21.31;40.64;99420.22;5067102;28;45344;-69
2022/04/23 10:15:26;;;;;;;;;32.75;29.25;;;;;21.50;40.12;99427.16;5081277;28;45574;-69
2022/04/23 10:17:53;;;;;;;;;27.25;27.00;;;;;21.48;40.13;99418.28;5069550;28;45387;-69
2022/04/23 10:20:18;;;;;;;;;29.75;29.50;;;;;21.62;40.53;99418.81;5081047;27;45463;-68
2022/04/23 10:22:53;;;;;;;;;28.50;25.75;;;;;21.83;39.98;99425.47;5072734;28;48064;-68
2022/04/23 10:25:42;;;;;;;;;28.00;27.00;;;;;21.68;40.44;99418.63;5079424;28;45396;-68
2022/04/23 10:28:08;;;;;;;;;34.25;31.00;;;;;21.94;39.38;99416.22;5080693;27;45440;-68
2022/04/23 10:30:34;;;;;;;;;24.00;24.00;;;;;22.10;39.45;99418.16;5080914;28;45645;-68
2022/04/23 10:33:26;;;;;;;;;28.75;25.50;;;;;22.25;39.02;99412.00;5073318;28;46806;-69
2022/04/23 10:36:08;;;;;;;;;30.00;28.50;;;;;22.10;38.55;99409.84;5070267;28;45478;-68
2022/04/23 10:38:37;;;;;;;;;28.25;25.50;;;;;22.18;39.20;99403.06;5074908;27;45396;-69
2022/04/23 10:41:04;;;;;;;;;30.00;26.75;;;;;22.35;38.69;99407.44;5071255;28;45257;-68
2022/04/23 10:43:30;;;;;;;;;26.75;25.75;;;;;22.17;39.27;99393.91;5065305;28;46096;-68
2022/04/23 10:45:56;;;;;;;;;30.00;30.00;;;;;22.35;39.29;99396.38;5074573;28;45353;-68
2022/04/23 10:48:26;;;;;;;;;26.25;26.00;;;;;22.68;39.00;99403.66;5073524;28;45239;-68
2022/04/23 10:51:05;;;;;;;;;29.50;26.75;;;;;22.87;38.64;99391.16;5073684;27;45436;-69
2022/04/23 10:53:41;;;;;;;;;29.75;27.00;;;;;22.49;38.97;99397.66;5068135;28;46233;-69
2022/04/23 10:56:10;;;;;;;;;28.00;26.00;;;;;22.50;39.12;99402.06;5078917;28;45383;-67
2022/04/23 10:58:40;;;;;;;;;28.25;24.75;;;;;22.84;39.00;99393.63;5074776;28;45542;-69
2022/04/23 11:01:23;;;;;;;;;29.50;27.75;;;;;23.20;38.27;99395.66;5081543;27;45402;-67
2022/04/23 11:03:54;;;;;;;;;25.75;25.50;;;;;23.15;37.84;99395.59;5075093;27;45537;-67
2022/04/23 11:12:22;;;;;;;;;30.50;25.25;;;;;23.79;36.53;99392.81;5074375;28;45385;-68
2022/04/23 11:14:51;;;;;;;;;22.50;21.00;;;;;23.90;36.93;99397.31;5068580;28;47695;-69
2022/04/23 11:17:44;;;;;;;;;19.33;17.33;;;;;24.19;36.61;99399.69;5076745;28;45444;-69
2022/04/23 11:20:11;;;;;;;;;19.00;19.00;;;;;24.40;34.60;99374.53;5076325;28;45318;-68
2022/04/23 11:22:37;;;;;;;;;19.50;17.25;;;;;24.80;34.40;99368.28;5077970;27;45482;-69
2022/04/23 11:25:03;;;;;;;;;22.67;20.33;;;;;25.22;33.53;99381.13;5066838;28;47157;-68
2022/04/23 11:27:36;;;;;;;;;14.50;13.25;;;;;25.16;32.73;99377.53;5067794;27;45384;-69
2022/04/23 11:30:03;;;;;;;;;18.75;18.00;;;;;24.72;33.44;99376.31;5068563;28;45499;-69
2022/04/23 11:32:31;;;;;;;;;22.50;20.25;;;;;25.11;33.24;99365.59;5065575;28;45535;-68
2022/04/23 11:34:58;;;;;;;;;16.25;16.25;;;;;25.33;33.05;99360.59;5068484;28;47201;-69
2022/04/23 11:37:33;;;;;;;;;14.75;14.00;;;;;24.90;33.19;99366.63;5069437;27;45303;-69
2022/04/23 11:40:08;;;;;;;;;18.00;15.50;;;;;24.41;34.15;99364.28;5074822;28;45438;-68